Time;durP1;ratioP1;P1;durP2;ratioP2;P2;SDS_P1;SDS_P2;PMS_P1;PMS_P2;Temp;Humidity;BMP_temperature;BMP_pressure;BME280_temperature;BME280_humidity;BME280_pressure;Samples;Min_cycle;Max_cycle;Signal;HPM_P1;HPM_P2
2023/10/20 00:01:41;;;;;;;9.50;8.60;;;;;;;;;;5087151;28;20484;-70
2023/10/20 00:04:07;;;;;;;8.17;7.37;;;;;;;;;;5087553;28;20494;-69
2023/10/20 00:06:33;;;;;;;14.90;8.50;;;;;;;;;;5083350;28;20971;-70
2023/10/20 00:08:59;;;;;;;3.70;3.50;;;;;;;;;;5087052;28;20475;-70
2023/10/20 00:11:28;;;;;;;4.83;4.63;;;;;;;;;;5087732;28;20935;-69
2023/10/20 00:13:54;;;;;;;9.63;8.60;;;;;;;;;;5089511;28;20833;-71
2023/10/20 00:16:24;;;;;;;8.90;8.00;;;;;;;;;;5091592;28;20461;-70
2023/10/20 00:18:50;;;;;;;8.80;7.97;;;;;;;;;;5090561;28;20454;-70
2023/10/20 00:21:16;;;;;;;9.33;7.30;;;;;;;;;;5091237;28;21210;-70
2023/10/20 00:23:42;;;;;;;15.03;8.83;;;;;;;;;;5089931;28;20428;-70
2023/10/20 00:26:08;;;;;;;8.57;7.53;;;;;;;;;;5090984;28;20444;-68
2023/10/20 00:28:34;;;;;;;7.97;7.43;;;;;;;;;;5089383;28;20444;-69
2023/10/20 00:31:00;;;;;;;3.77;3.60;;;;;;;;;;5090113;28;20465;-69
2023/10/20 00:33:25;;;;;;;15.80;8.47;;;;;;;;;;5087297;28;20937;-69
2023/10/20 00:35:51;;;;;;;9.13;8.33;;;;;;;;;;5091491;28;20448;-70
2023/10/20 00:38:17;;;;;;;8.20;7.70;;;;;;;;;;5089461;28;20462;-69
2023/10/20 00:40:49;;;;;;;10.00;8.40;;;;;;;;;;5089020;28;20468;-70
2023/10/20 00:43:15;;;;;;;9.17;8.40;;;;;;;;;;5088108;28;20507;-69
2023/10/20 00:45:43;;;;;;;3.40;3.20;;;;;;;;;;5093217;28;20408;-69
2023/10/20 00:48:10;;;;;;;3.90;3.60;;;;;;;;;;5086761;28;20441;-70
2023/10/20 00:50:37;;;;;;;18.60;4.43;;;;;;;;;;5084988;28;20433;-70
2023/10/20 00:53:03;;;;;;;9.73;8.73;;;;;;;;;;5083870;28;20437;-70
2023/10/20 00:55:30;;;;;;;9.63;8.57;;;;;;;;;;5091033;28;20913;-70
2023/10/20 00:57:57;;;;;;;8.17;7.40;;;;;;;;;;5086695;28;20508;-70
2023/10/20 01:00:23;;;;;;;4.50;4.30;;;;;;;;;;5092281;28;20485;-69
2023/10/20 01:02:49;;;;;;;11.90;7.50;;;;;;;;;;5090367;28;20444;-70
2023/10/20 01:05:19;;;;;;;9.03;7.27;;;;;;;;;;5086144;28;20453;-69
2023/10/20 01:07:45;;;;;;;2.93;2.83;;;;;;;;;;5086653;28;20433;-70
2023/10/20 01:10:11;;;;;;;6.67;5.73;;;;;;;;;;5085263;28;20435;-70
2023/10/20 01:12:37;;;;;;;6.83;6.33;;;;;;;;;;5089162;28;20436;-70
2023/10/20 01:15:05;;;;;;;6.67;5.70;;;;;;;;;;5083464;28;20945;-70
2023/10/20 01:17:32;;;;;;;7.10;6.60;;;;;;;;;;5091614;28;20905;-69
2023/10/20 01:20:01;;;;;;;4.63;4.43;;;;;;;;;;5087505;28;20830;-70
2023/10/20 01:22:27;;;;;;;10.90;6.30;;;;;;;;;;5086318;28;20476;-69
2023/10/20 01:24:53;;;;;;;8.87;8.07;;;;;;;;;;5090487;28;20441;-69
2023/10/20 01:27:19;;;;;;;7.50;6.77;;;;;;;;;;5086671;28;20449;-70
2023/10/20 01:29:45;;;;;;;8.70;7.50;;;;;;;;;;5090663;28;20432;-69
2023/10/20 01:32:11;;;;;;;8.47;7.67;;;;;;;;;;5091314;28;20432;-69
2023/10/20 01:34:37;;;;;;;8.67;6.80;;;;;;;;;;5081971;28;20447;-69
2023/10/20 01:37:03;;;;;;;10.13;7.00;;;;;;;;;;5086211;28;20441;-69
2023/10/20 01:39:29;;;;;;;6.13;5.63;;;;;;;;;;5088479;28;20508;-69
2023/10/20 01:41:55;;;;;;;4.27;3.97;;;;;;;;;;5089643;28;20914;-69
2023/10/20 01:44:21;;;;;;;5.93;5.43;;;;;;;;;;5085571;28;20452;-69
2023/10/20 01:46:50;;;;;;;9.17;8.27;;;;;;;;;;5085673;28;20440;-69
2023/10/20 01:49:17;;;;;;;9.90;8.87;;;;;;;;;;5087046;28;20437;-70
2023/10/20 01:51:42;;;;;;;8.07;7.57;;;;;;;;;;5088444;28;20480;-69
2023/10/20 01:54:08;;;;;;;8.90;8.20;;;;;;;;;;5086043;28;20432;-69
2023/10/20 01:56:34;;;;;;;8.10;7.47;;;;;;;;;;5086957;28;20488;-69
2023/10/20 01:59:00;;;;;;;8.60;7.67;;;;;;;;;;5088842;28;20444;-69
2023/10/20 02:01:27;;;;;;;7.90;7.40;;;;;;;;;;5088748;28;20512;-70
2023/10/20 02:03:53;;;;;;;3.57;3.47;;;;;;;;;;5086349;28;20474;-69
2023/10/20 02:06:19;;;;;;;10.63;9.10;;;;;;;;;;5085531;28;20473;-70
2023/10/20 02:08:45;;;;;;;8.60;7.90;;;;;;;;;;5083431;28;21045;-69
2023/10/20 02:11:11;;;;;;;9.23;8.40;;;;;;;;;;5081809;28;20474;-70
2023/10/20 02:13:38;;;;;;;8.30;7.60;;;;;;;;;;5086571;28;20928;-70
2023/10/20 02:16:07;;;;;;;7.50;7.10;;;;;;;;;;5089240;28;20479;-70
2023/10/20 02:18:33;;;;;;;9.70;8.90;;;;;;;;;;5081459;28;20520;-69
2023/10/20 02:21:03;;;;;;;9.40;8.47;;;;;;;;;;5081808;28;20546;-70
2023/10/20 02:23:29;;;;;;;8.87;7.97;;;;;;;;;;5086669;28;20445;-70
2023/10/20 02:25:59;;;;;;;9.43;8.73;;;;;;;;;;5089768;28;20444;-69
2023/10/20 02:28:26;;;;;;;8.97;8.27;;;;;;;;;;5086868;28;20435;-69
2023/10/20 02:30:52;;;;;;;7.70;7.30;;;;;;;;;;5083306;28;20500;-70
2023/10/20 02:33:18;;;;;;;8.23;7.73;;;;;;;;;;5081011;28;20531;-69
2023/10/20 02:35:44;;;;;;;8.10;7.40;;;;;;;;;;5085976;28;20447;-70
2023/10/20 02:38:10;;;;;;;10.17;9.27;;;;;;;;;;5085531;28;20798;-71
2023/10/20 02:40:36;;;;;;;9.50;8.70;;;;;;;;;;5085495;28;20494;-69
2023/10/20 02:43:04;;;;;;;8.23;7.60;;;;;;;;;;5088579;28;20436;-69
2023/10/20 02:45:29;;;;;;;10.50;9.17;;;;;;;;;;5084871;28;20434;-69
2023/10/20 02:47:55;;;;;;;9.47;8.57;;;;;;;;;;5083606;28;20527;-69
2023/10/20 02:50:21;;;;;;;13.38;10.38;;;;;;;;;;5086135;28;20413;-69
2023/10/20 02:52:47;;;;;;;15.90;8.70;;;;;;;;;;5082870;28;20186;-69
2023/10/20 02:55:13;;;;;;;8.63;7.93;;;;;;;;;;5090082;28;20441;-69
2023/10/20 02:57:39;;;;;;;9.70;8.80;;;;;;;;;;5085223;28;20500;-69
2023/10/20 03:00:10;;;;;;;8.67;7.70;;;;;;;;;;5083402;28;20448;-68
2023/10/20 03:02:36;;;;;;;3.77;3.60;;;;;;;;;;5088121;28;20479;-69
2023/10/20 03:05:02;;;;;;;8.30;7.50;;;;;;;;;;5087222;28;20428;-69
2023/10/20 03:07:28;;;;;;;8.30;7.50;;;;;;;;;;5090490;28;20428;-69
2023/10/20 03:09:55;;;;;;;7.73;7.13;;;;;;;;;;5080490;28;20437;-69
2023/10/20 03:12:21;;;;;;;8.33;7.73;;;;;;;;;;5089154;28;20439;-69
2023/10/20 03:14:48;;;;;;;8.13;7.53;;;;;;;;;;5088008;28;20425;-69
2023/10/20 03:17:14;;;;;;;5.13;4.83;;;;;;;;;;5090176;28;21062;-70
2023/10/20 03:19:40;;;;;;;4.43;4.20;;;;;;;;;;5089845;28;20417;-69
2023/10/20 03:22:08;;;;;;;6.50;6.00;;;;;;;;;;5088046;28;20499;-69
2023/10/20 03:24:34;;;;;;;5.20;4.80;;;;;;;;;;5085967;28;20809;-69
2023/10/20 03:27:00;;;;;;;7.03;6.43;;;;;;;;;;5087192;28;20437;-69
2023/10/20 03:29:26;;;;;;;6.47;5.83;;;;;;;;;;5087324;28;20433;-69
2023/10/20 03:31:53;;;;;;;5.07;4.77;;;;;;;;;;5089524;28;20805;-69
2023/10/20 03:34:19;;;;;;;4.77;4.50;;;;;;;;;;5086157;28;20471;-69
2023/10/20 03:36:45;;;;;;;4.73;4.43;;;;;;;;;;5087753;28;20435;-69
2023/10/20 03:39:20;;;;;;;2.97;2.87;;;;;;;;;;5089548;28;20416;-70
2023/10/20 03:41:46;;;;;;;5.07;4.87;;;;;;;;;;5089227;28;20488;-69
2023/10/20 03:44:12;;;;;;;8.40;5.47;;;;;;;;;;5087791;28;20436;-69
2023/10/20 03:46:49;;;;;;;5.90;4.40;;;;;;;;;;5089028;28;20448;-69
2023/10/20 03:49:15;;;;;;;4.07;3.90;;;;;;;;;;5089386;28;20416;-69
2023/10/20 03:51:49;;;;;;;6.67;5.40;;;;;;;;;;5087533;28;20825;-69
2023/10/20 03:54:15;;;;;;;4.47;4.27;;;;;;;;;;5087290;28;20436;-69
2023/10/20 03:56:41;;;;;;;4.27;3.87;;;;;;;;;;5081307;28;20470;-69
2023/10/20 03:59:08;;;;;;;4.23;3.90;;;;;;;;;;5088088;28;21692;-69
2023/10/20 04:01:34;;;;;;;4.67;4.47;;;;;;;;;;5083784;28;20485;-69
2023/10/20 04:04:00;;;;;;;4.00;3.70;;;;;;;;;;5083519;28;20959;-69
2023/10/20 04:06:26;;;;;;;5.70;5.17;;;;;;;;;;5082891;28;20993;-69
2023/10/20 04:08:52;;;;;;;6.40;5.90;;;;;;;;;;5079056;28;20428;-69
2023/10/20 04:11:18;;;;;;;4.60;4.20;;;;;;;;;;5081346;28;21011;-69
2023/10/20 04:13:44;;;;;;;3.83;3.73;;;;;;;;;;5081124;28;20503;-70
2023/10/20 04:16:18;;;;;;;5.03;4.53;;;;;;;;;;5085404;28;20512;-69
2023/10/20 04:18:44;;;;;;;3.53;3.43;;;;;;;;;;5082545;28;20451;-69
2023/10/20 04:21:13;;;;;;;3.47;3.37;;;;;;;;;;5080775;28;20831;-69
2023/10/20 04:23:40;;;;;;;2.53;2.53;;;;;;;;;;5081213;28;20457;-69
2023/10/20 04:26:16;;;;;;;4.97;3.00;;;;;;;;;;5082679;28;20573;-69
2023/10/20 04:28:43;;;;;;;3.20;3.00;;;;;;;;;;5086877;28;20523;-69
2023/10/20 04:58:34;;;;;;;2.30;2.10;;;;;;;;;;5089453;28;20415;-69
2023/10/20 05:01:16;;;;;;;3.60;2.60;;;;;;;;;;5089844;28;20476;-69
2023/10/20 05:03:53;;;;;;;3.30;2.27;;;;;;;;;;5087542;28;21006;-69
2023/10/20 05:06:40;;;;;;;2.83;2.73;;;;;;;;;;5085269;28;20531;-69
2023/10/20 05:09:09;;;;;;;2.20;2.10;;;;;;;;;;5084588;28;20433;-69
2023/10/20 05:11:35;;;;;;;4.23;2.00;;;;;;;;;;5091566;28;20432;-69
2023/10/20 05:14:01;;;;;;;2.10;2.10;;;;;;;;;;5088971;28;20941;-69
2023/10/20 05:16:28;;;;;;;2.03;2.03;;;;;;;;;;5089546;28;20432;-69
2023/10/20 05:18:55;;;;;;;3.23;1.53;;;;;;;;;;5089518;28;20948;-69
2023/10/20 05:21:21;;;;;;;1.40;1.40;;;;;;;;;;5092427;28;20480;-69
2023/10/20 05:23:49;;;;;;;2.10;2.07;;;;;;;;;;5088660;28;21025;-69
2023/10/20 05:26:15;;;;;;;2.00;1.90;;;;;;;;;;5083356;28;20522;-69
2023/10/20 05:28:41;;;;;;;1.47;1.47;;;;;;;;;;5085216;28;20940;-69
2023/10/20 05:31:07;;;;;;;4.67;1.40;;;;;;;;;;5079790;28;20552;-69
2023/10/20 05:33:33;;;;;;;6.50;1.90;;;;;;;;;;5083534;28;20440;-69
2023/10/20 05:36:01;;;;;;;5.30;2.20;;;;;;;;;;5087196;28;20445;-69
2023/10/20 05:38:27;;;;;;;1.20;1.20;;;;;;;;;;5086089;28;20444;-69
2023/10/20 05:40:58;;;;;;;1.50;1.37;;;;;;;;;;5085866;28;20478;-69
2023/10/20 05:43:24;;;;;;;1.40;1.40;;;;;;;;;;5086653;28;20491;-69
2023/10/20 05:45:50;;;;;;;1.57;1.57;;;;;;;;;;5084993;28;20435;-69
2023/10/20 05:48:16;;;;;;;1.40;1.30;;;;;;;;;;5086880;28;20817;-70
2023/10/20 05:50:42;;;;;;;1.40;1.40;;;;;;;;;;5081002;28;20537;-70
2023/10/20 05:53:10;;;;;;;1.50;1.50;;;;;;;;;;5088055;28;20444;-70
2023/10/20 05:55:36;;;;;;;1.10;1.10;;;;;;;;;;5086771;28;20807;-71
2023/10/20 05:58:03;;;;;;;1.67;1.67;;;;;;;;;;5084962;28;20480;-70
2023/10/20 06:00:29;;;;;;;2.17;1.67;;;;;;;;;;5087876;28;20433;-70
2023/10/20 06:02:55;;;;;;;1.60;1.60;;;;;;;;;;5086084;28;20514;-70
2023/10/20 06:05:22;;;;;;;1.03;1.03;;;;;;;;;;5082425;28;20458;-72
2023/10/20 06:07:48;;;;;;;1.23;1.00;;;;;;;;;;5083990;28;20459;-69
2023/10/20 06:10:16;;;;;;;1.30;1.30;;;;;;;;;;5078443;28;20428;-69
2023/10/20 06:12:42;;;;;;;2.50;2.10;;;;;;;;;;5080315;28;21130;-69
2023/10/20 06:15:09;;;;;;;3.10;3.00;;;;;;;;;;5084575;28;20449;-69
2023/10/20 06:17:35;;;;;;;4.00;3.30;;;;;;;;;;5082040;28;20444;-70
2023/10/20 06:20:06;;;;;;;4.00;3.80;;;;;;;;;;5086844;28;20837;-70
2023/10/20 06:22:32;;;;;;;3.83;3.03;;;;;;;;;;5085846;28;20594;-70
2023/10/20 06:24:59;;;;;;;3.67;3.57;;;;;;;;;;5083145;28;20436;-72
2023/10/20 06:27:25;;;;;;;5.73;3.80;;;;;;;;;;5072060;28;20444;-69
2023/10/20 06:30:07;;;;;;;4.10;4.00;;;;;;;;;;5083323;28;20955;-69
2023/10/20 06:32:42;;;;;;;4.73;4.57;;;;;;;;;;5082806;28;20916;-70
2023/10/20 06:35:09;;;;;;;5.17;4.87;;;;;;;;;;5086797;28;20590;-70
2023/10/20 06:37:41;;;;;;;4.83;4.53;;;;;;;;;;5075742;28;20440;-69
2023/10/20 06:40:07;;;;;;;4.33;4.07;;;;;;;;;;5074467;28;20441;-69
2023/10/20 06:42:33;;;;;;;4.27;4.17;;;;;;;;;;5079104;28;20483;-69
2023/10/20 06:45:04;;;;;;;4.17;3.97;;;;;;;;;;5078490;28;20803;-69
2023/10/20 06:47:30;;;;;;;6.03;4.50;;;;;;;;;;5079424;28;20453;-69
2023/10/20 06:49:56;;;;;;;4.63;4.53;;;;;;;;;;5089062;28;20408;-70
2023/10/20 06:52:22;;;;;;;4.37;4.07;;;;;;;;;;5079237;28;20634;-69
2023/10/20 06:54:49;;;;;;;5.03;4.73;;;;;;;;;;5079967;28;20440;-69
2023/10/20 06:57:16;;;;;;;5.73;5.40;;;;;;;;;;5081281;28;20472;-69
2023/10/20 06:59:42;;;;;;;5.97;5.57;;;;;;;;;;5061815;28;20433;-69
2023/10/20 07:02:09;;;;;;;10.13;6.10;;;;;;;;;;5071935;28;20572;-69
2023/10/20 07:04:35;;;;;;;6.40;5.90;;;;;;;;;;5065307;28;20445;-70
2023/10/20 07:07:01;;;;;;;6.90;6.40;;;;;;;;;;5071179;28;20429;-69
2023/10/20 07:09:27;;;;;;;7.77;6.80;;;;;;;;;;5093100;28;20424;-69
2023/10/20 07:11:53;;;;;;;6.73;6.33;;;;;;;;;;5086946;28;20421;-69
2023/10/20 07:14:19;;;;;;;8.53;5.93;;;;;;;;;;5071905;28;20437;-69
2023/10/20 07:16:45;;;;;;;6.03;5.57;;;;;;;;;;5071026;28;20984;-69
2023/10/20 07:19:11;;;;;;;5.53;5.33;;;;;;;;;;5070636;28;20758;-69
2023/10/20 07:21:37;;;;;;;5.37;5.17;;;;;;;;;;5082937;28;20512;-69
2023/10/20 07:24:03;;;;;;;5.13;4.73;;;;;;;;;;5068692;28;20784;-70
2023/10/20 07:26:30;;;;;;;4.63;4.40;;;;;;;;;;5069867;28;20973;-69
2023/10/20 07:28:56;;;;;;;4.30;4.10;;;;;;;;;;5064651;28;20806;-70
2023/10/20 07:31:22;;;;;;;4.97;4.50;;;;;;;;;;5071992;28;20508;-70
2023/10/20 07:33:51;;;;;;;5.73;5.23;;;;;;;;;;5072668;28;20425;-70
2023/10/20 07:36:17;;;;;;;5.07;4.60;;;;;;;;;;5073026;28;20800;-70
2023/10/20 07:38:43;;;;;;;5.60;5.20;;;;;;;;;;5072428;28;20948;-70
2023/10/20 07:41:11;;;;;;;5.90;4.80;;;;;;;;;;5072835;28;20461;-70
2023/10/20 07:43:37;;;;;;;5.70;5.40;;;;;;;;;;5072820;28;20802;-71
2023/10/20 07:46:03;;;;;;;5.37;4.97;;;;;;;;;;5072767;28;20448;-70
2023/10/20 07:48:32;;;;;;;5.20;5.00;;;;;;;;;;5072084;28;20448;-70
2023/10/20 07:51:01;;;;;;;5.00;4.70;;;;;;;;;;5072843;28;20417;-71
2023/10/20 07:53:31;;;;;;;5.90;5.50;;;;;;;;;;5072865;28;20441;-71
2023/10/20 07:55:57;;;;;;;6.07;5.77;;;;;;;;;;5072576;28;20913;-70
2023/10/20 07:58:23;;;;;;;5.23;5.03;;;;;;;;;;5072042;28;20409;-70
2023/10/20 08:00:49;;;;;;;6.03;4.00;;;;;;;;;;5072637;28;20422;-70
2023/10/20 08:03:15;;;;;;;5.10;4.90;;;;;;;;;;5072529;28;20426;-70
2023/10/20 08:05:41;;;;;;;4.50;4.33;;;;;;;;;;5072679;28;20475;-71
2023/10/20 08:08:07;;;;;;;4.53;4.33;;;;;;;;;;5072238;28;20426;-71
2023/10/20 08:10:33;;;;;;;4.80;4.50;;;;;;;;;;5072033;28;20478;-69
2023/10/20 08:13:00;;;;;;;3.90;3.80;;;;;;;;;;5072692;28;20795;-71
2023/10/20 08:15:29;;;;;;;4.10;3.97;;;;;;;;;;5072641;28;20421;-70
2023/10/20 08:17:55;;;;;;;2.97;2.83;;;;;;;;;;5071884;28;20436;-70
2023/10/20 08:20:21;;;;;;;3.47;3.37;;;;;;;;;;5071954;28;20426;-70
2023/10/20 08:22:48;;;;;;;2.73;2.63;;;;;;;;;;5052435;28;20489;-71
2023/10/20 08:25:14;;;;;;;4.60;3.30;;;;;;;;;;5052539;28;20410;-72
2023/10/20 08:27:40;;;;;;;5.07;2.60;;;;;;;;;;5052108;28;20422;-70
2023/10/20 08:30:07;;;;;;;1.80;1.70;;;;;;;;;;5062680;28;20436;-70
2023/10/20 08:32:33;;;;;;;1.73;1.73;;;;;;;;;;5070367;28;20425;-70
2023/10/20 08:34:59;;;;;;;1.53;1.53;;;;;;;;;;5072774;28;20433;-70
2023/10/20 08:37:25;;;;;;;1.50;1.47;;;;;;;;;;5075755;28;20433;-70
2023/10/20 08:39:51;;;;;;;1.40;1.30;;;;;;;;;;5075086;28;20934;-69
2023/10/20 08:42:21;;;;;;;1.07;1.07;;;;;;;;;;5074691;28;20487;-69
2023/10/20 08:44:48;;;;;;;2.00;1.90;;;;;;;;;;5075241;28;20429;-69
2023/10/20 08:47:15;;;;;;;2.93;1.70;;;;;;;;;;5074824;28;20425;-69
2023/10/20 08:49:46;;;;;;;2.20;1.20;;;;;;;;;;5067401;28;20461;-70
2023/10/20 08:52:12;;;;;;;1.07;1.07;;;;;;;;;;5072310;28;20482;-70
2023/10/20 08:54:38;;;;;;;3.80;1.10;;;;;;;;;;5067022;28;20909;-70
2023/10/20 08:57:05;;;;;;;0.87;0.87;;;;;;;;;;5070848;28;20466;-70
2023/10/20 08:59:35;;;;;;;2.77;1.00;;;;;;;;;;5072602;28;20429;-69
2023/10/20 09:02:02;;;;;;;0.90;0.90;;;;;;;;;;5074934;28;20987;-70
2023/10/20 09:04:28;;;;;;;1.80;1.80;;;;;;;;;;5075191;28;20937;-70
2023/10/20 09:06:55;;;;;;;1.03;1.03;;;;;;;;;;5074737;28;20432;-73
2023/10/20 09:09:21;;;;;;;1.20;1.00;;;;;;;;;;5073936;28;20483;-70
2023/10/20 09:11:48;;;;;;;2.13;2.07;;;;;;;;;;5075133;28;20433;-71
2023/10/20 09:14:15;;;;;;;1.20;1.10;;;;;;;;;;5075085;28;20556;-70
2023/10/20 09:16:45;;;;;;;1.70;1.07;;;;;;;;;;5077412;28;20440;-69
2023/10/20 09:19:11;;;;;;;0.73;0.63;;;;;;;;;;5076853;28;20933;-72
2023/10/20 09:21:39;;;;;;;2.73;0.83;;;;;;;;;;5074554;28;20976;-69
2023/10/20 09:24:07;;;;;;;2.53;0.90;;;;;;;;;;5075102;28;20474;-69
2023/10/20 09:26:37;;;;;;;0.60;0.60;;;;;;;;;;5074992;28;20424;-71
2023/10/20 09:29:05;;;;;;;2.83;1.40;;;;;;;;;;5074304;28;20429;-73
2023/10/20 09:31:31;;;;;;;2.10;0.70;;;;;;;;;;5073738;28;20437;-70
2023/10/20 09:33:57;;;;;;;0.57;0.57;;;;;;;;;;5075136;28;20511;-73
2023/10/20 09:36:23;;;;;;;0.80;0.80;;;;;;;;;;5073407;28;20869;-69
2023/10/20 09:38:53;;;;;;;0.90;0.90;;;;;;;;;;5074172;28;20820;-69
2023/10/20 09:41:29;;;;;;;2.10;0.77;;;;;;;;;;5074093;28;20468;-69
2023/10/20 09:44:02;;;;;;;1.90;0.70;;;;;;;;;;5074570;28;20437;-69
2023/10/20 09:46:43;;;;;;;0.60;0.60;;;;;;;;;;5073916;28;20839;-69
2023/10/20 09:49:19;;;;;;;0.73;0.60;;;;;;;;;;5072030;28;20456;-69
2023/10/20 09:51:45;;;;;;;1.20;1.20;;;;;;;;;;5073212;28;20430;-69
2023/10/20 09:54:13;;;;;;;0.60;0.60;;;;;;;;;;5062962;28;20449;-70
2023/10/20 09:56:40;;;;;;;2.00;0.70;;;;;;;;;;5062453;28;20462;-70
2023/10/20 09:59:06;;;;;;;1.17;1.13;;;;;;;;;;5054245;28;20418;-70
2023/10/20 10:01:32;;;;;;;0.80;0.80;;;;;;;;;;5057654;28;20469;-69
2023/10/20 10:04:03;;;;;;;2.10;1.00;;;;;;;;;;5069926;28;20469;-69
2023/10/20 10:06:35;;;;;;;0.90;0.90;;;;;;;;;;5074103;28;20932;-69
2023/10/20 10:09:03;;;;;;;0.63;0.63;;;;;;;;;;5073703;28;20414;-69
2023/10/20 10:11:30;;;;;;;1.53;0.70;;;;;;;;;;5087014;28;20421;-70
2023/10/20 10:14:01;;;;;;;1.00;0.90;;;;;;;;;;5071939;28;20430;-69
2023/10/20 10:16:27;;;;;;;1.10;1.07;;;;;;;;;;5062123;28;20410;-70
2023/10/20 10:18:56;;;;;;;1.23;0.60;;;;;;;;;;5073787;28;20916;-69
2023/10/20 10:21:29;;;;;;;12.53;0.70;;;;;;;;;;5073438;28;20478;-70
2023/10/20 10:24:07;;;;;;;0.70;0.60;;;;;;;;;;5073302;28;20429;-70
2023/10/20 10:26:33;;;;;;;1.80;0.93;;;;;;;;;;5070666;28;20433;-70
2023/10/20 10:28:59;;;;;;;0.60;0.60;;;;;;;;;;5073199;28;20475;-69
2023/10/20 10:31:35;;;;;;;2.87;2.00;;;;;;;;;;5067856;28;20448;-69
2023/10/20 10:34:05;;;;;;;1.27;1.27;;;;;;;;;;5073114;28;20516;-72
2023/10/20 10:36:31;;;;;;;4.70;4.53;;;;;;;;;;5088996;28;20475;-68
2023/10/20 10:38:57;;;;;;;5.73;4.17;;;;;;;;;;5069674;28;20488;-70
2023/10/20 10:41:24;;;;;;;1.73;1.63;;;;;;;;;;5054224;28;20506;-72
2023/10/20 10:43:54;;;;;;;1.10;1.10;;;;;;;;;;5062322;28;20883;-60
2023/10/20 10:46:20;;;;;;;2.83;0.90;;;;;;;;;;5073070;28;20441;-68
2023/10/20 10:48:47;;;;;;;2.23;2.00;;;;;;;;;;5073160;28;20487;-68
2023/10/20 10:51:13;;;;;;;1.23;1.23;;;;;;;;;;5073270;28;20926;-69
2023/10/20 10:53:40;;;;;;;0.77;0.77;;;;;;;;;;5070989;28;20483;-68
2023/10/20 10:56:07;;;;;;;1.70;0.70;;;;;;;;;;5072411;28;21007;-68
2023/10/20 10:58:33;;;;;;;0.87;0.50;;;;;;;;;;5072974;28;20983;-68
2023/10/20 11:00:59;;;;;;;1.03;1.03;;;;;;;;;;5072184;28;20773;-67
2023/10/20 11:03:25;;;;;;;0.70;0.50;;;;;;;;;;5062260;28;20430;-61
2023/10/20 11:05:51;;;;;;;0.53;0.53;;;;;;;;;;5059562;28;20425;-68
2023/10/20 11:08:19;;;;;;;0.67;0.67;;;;;;;;;;5072030;28;21058;-69
2023/10/20 11:10:45;;;;;;;0.47;0.47;;;;;;;;;;5072719;28;20845;-68
2023/10/20 11:13:13;;;;;;;0.60;0.60;;;;;;;;;;5073043;28;20561;-69
2023/10/20 11:15:40;;;;;;;0.70;0.70;;;;;;;;;;5072852;28;20405;-69
2023/10/20 11:18:07;;;;;;;2.20;0.73;;;;;;;;;;5072025;28;20510;-69
2023/10/20 11:20:34;;;;;;;5.90;2.80;;;;;;;;;;5066448;28;20427;-68
2023/10/20 11:23:00;;;;;;;0.50;0.50;;;;;;;;;;5064349;28;20512;-68
2023/10/20 11:25:26;;;;;;;0.50;0.50;;;;;;;;;;5068891;28;20432;-68
2023/10/20 11:27:56;;;;;;;2.53;0.70;;;;;;;;;;5066459;28;20464;-68
2023/10/20 11:30:32;;;;;;;0.80;0.80;;;;;;;;;;5068534;28;20476;-68
2023/10/20 11:32:58;;;;;;;0.60;0.60;;;;;;;;;;5072392;28;20429;-69
2023/10/20 11:35:25;;;;;;;1.20;1.20;;;;;;;;;;5055956;28;20418;-68
2023/10/20 11:37:55;;;;;;;2.50;1.50;;;;;;;;;;5056440;28;20420;-68
2023/10/20 11:40:21;;;;;;;0.67;0.67;;;;;;;;;;5072543;28;20548;-68
2023/10/20 11:42:50;;;;;;;1.33;1.33;;;;;;;;;;5072790;28;20996;-68
2023/10/20 11:45:16;;;;;;;12.23;0.87;;;;;;;;;;5072937;28;20452;-68
2023/10/20 11:47:43;;;;;;;1.83;1.73;;;;;;;;;;5072557;28;20925;-68
2023/10/20 11:50:10;;;;;;;1.20;0.67;;;;;;;;;;5067187;28;20418;-73
2023/10/20 11:52:37;;;;;;;1.00;1.00;;;;;;;;;;5072582;28;20430;-69
2023/10/20 11:55:03;;;;;;;3.83;1.37;;;;;;;;;;5072326;28;20413;-68
2023/10/20 11:57:30;;;;;;;0.93;0.80;;;;;;;;;;5075433;28;20476;-69
2023/10/20 11:59:55;;;;;;;1.10;1.10;;;;;;;;;;5066290;28;20513;-69
2023/10/20 12:02:22;;;;;;;0.97;0.90;;;;;;;;;;5059834;28;20911;-68
2023/10/20 12:04:48;;;;;;;1.50;0.87;;;;;;;;;;5061660;28;20992;-68
2023/10/20 12:07:14;;;;;;;0.80;0.80;;;;;;;;;;5070417;28;20425;-68
2023/10/20 12:09:40;;;;;;;2.87;2.67;;;;;;;;;;5074035;28;20421;-69
2023/10/20 12:12:06;;;;;;;2.80;2.70;;;;;;;;;;5076686;28;20425;-68
2023/10/20 12:14:32;;;;;;;4.90;3.00;;;;;;;;;;5074602;28;20409;-68
2023/10/20 12:16:58;;;;;;;1.33;1.33;;;;;;;;;;5064665;28;20428;-68
2023/10/20 12:19:24;;;;;;;3.37;1.10;;;;;;;;;;5075711;28;20420;-68
2023/10/20 12:21:50;;;;;;;11.93;3.73;;;;;;;;;;5076084;28;20494;-69
2023/10/20 12:24:16;;;;;;;2.13;2.03;;;;;;;;;;5076301;28;20861;-69
2023/10/20 12:26:42;;;;;;;0.80;0.80;;;;;;;;;;5075983;28;20551;-68
2023/10/20 12:29:08;;;;;;;0.60;0.60;;;;;;;;;;5075616;28;20421;-68
2023/10/20 12:31:34;;;;;;;2.67;2.53;;;;;;;;;;5075439;28;20444;-69
2023/10/20 12:34:00;;;;;;;1.77;1.67;;;;;;;;;;5075677;28;20528;-68
2023/10/20 12:36:31;;;;;;;2.40;2.27;;;;;;;;;;5075298;28;20759;-68
2023/10/20 12:38:57;;;;;;;2.30;2.20;;;;;;;;;;5075644;28;20425;-68
2023/10/20 12:41:23;;;;;;;3.53;3.30;;;;;;;;;;5075416;28;20547;-69
2023/10/20 12:43:49;;;;;;;1.63;1.53;;;;;;;;;;5059479;28;20925;-68
2023/10/20 12:46:15;;;;;;;4.70;4.40;;;;;;;;;;5075400;28;20398;-68
2023/10/20 12:48:41;;;;;;;3.40;3.30;;;;;;;;;;5074899;28;20905;-68
2023/10/20 12:51:08;;;;;;;1.43;1.43;;;;;;;;;;5074869;28;20811;-68
2023/10/20 12:53:34;;;;;;;1.73;1.73;;;;;;;;;;5075510;28;20421;-69
2023/10/20 12:56:00;;;;;;;2.70;2.40;;;;;;;;;;5074012;28;20457;-68
2023/10/20 12:58:26;;;;;;;1.63;1.60;;;;;;;;;;5075830;28;20491;-68
2023/10/20 13:00:52;;;;;;;2.07;1.20;;;;;;;;;;5073321;28;20425;-68
2023/10/20 13:03:18;;;;;;;1.27;0.90;;;;;;;;;;5075217;28;20452;-68
2023/10/20 13:05:44;;;;;;;2.03;2.00;;;;;;;;;;5075367;28;20406;-68
2023/10/20 13:08:13;;;;;;;1.80;1.80;;;;;;;;;;5075138;28;20441;-68
2023/10/20 13:10:39;;;;;;;2.00;1.80;;;;;;;;;;5074460;28;20909;-69
2023/10/20 13:13:06;;;;;;;2.30;0.90;;;;;;;;;;5075310;28;20449;-68
2023/10/20 13:15:32;;;;;;;0.60;0.60;;;;;;;;;;5074006;28;20459;-70
2023/10/20 13:17:58;;;;;;;3.37;1.53;;;;;;;;;;5074982;28;20479;-68
2023/10/20 13:20:24;;;;;;;1.57;1.47;;;;;;;;;;5072934;28;20618;-69
2023/10/20 13:22:51;;;;;;;0.80;0.80;;;;;;;;;;5074983;28;20495;-68
2023/10/20 13:25:19;;;;;;;0.70;0.70;;;;;;;;;;5074607;28;20424;-69
2023/10/20 13:27:45;;;;;;;1.10;1.00;;;;;;;;;;5074916;28;20494;-68
2023/10/20 13:30:12;;;;;;;3.70;1.67;;;;;;;;;;5074016;28;20414;-69
2023/10/20 13:32:38;;;;;;;0.80;0.80;;;;;;;;;;5075183;28;20414;-68
2023/10/20 13:35:04;;;;;;;0.40;0.40;;;;;;;;;;5072941;28;20491;-68
2023/10/20 13:37:32;;;;;;;0.57;0.57;;;;;;;;;;5075040;28;20402;-69
2023/10/20 13:39:59;;;;;;;0.57;0.57;;;;;;;;;;5072602;28;20479;-70
2023/10/20 13:42:25;;;;;;;1.53;0.70;;;;;;;;;;5074971;28;20484;-69
2023/10/20 13:44:51;;;;;;;5.50;0.50;;;;;;;;;;5074195;28;20421;-71
2023/10/20 13:47:18;;;;;;;0.30;0.30;;;;;;;;;;5073105;28;20438;-68
2023/10/20 13:49:44;;;;;;;0.83;0.83;;;;;;;;;;5073985;28;20420;-70
2023/10/20 13:52:10;;;;;;;0.40;0.40;;;;;;;;;;5074736;28;20513;-68
2023/10/20 13:54:36;;;;;;;0.40;0.40;;;;;;;;;;5068233;28;20997;-69
2023/10/20 13:57:02;;;;;;;0.53;0.53;;;;;;;;;;5082790;28;20991;-70
2023/10/20 13:59:29;;;;;;;0.67;0.67;;;;;;;;;;5094092;28;20420;-68
2023/10/20 14:01:55;;;;;;;0.67;0.63;;;;;;;;;;5094086;28;20494;-68
2023/10/20 14:04:24;;;;;;;0.70;0.70;;;;;;;;;;5094456;28;20409;-68
2023/10/20 14:06:51;;;;;;;0.77;0.40;;;;;;;;;;5088710;28;21001;-68
2023/10/20 14:09:17;;;;;;;0.30;0.30;;;;;;;;;;5094340;28;20412;-69
2023/10/20 14:11:44;;;;;;;3.20;0.50;;;;;;;;;;5094130;28;20443;-68
2023/10/20 14:14:11;;;;;;;39.83;5.00;;;;;;;;;;5094303;28;20452;-69
2023/10/20 14:16:37;;;;;;;33.20;4.20;;;;;;;;;;5076598;28;20525;-68
2023/10/20 14:19:04;;;;;;;0.90;0.80;;;;;;;;;;5073999;28;20421;-68
2023/10/20 14:21:30;;;;;;;2.73;0.73;;;;;;;;;;5073553;28;20480;-68
2023/10/20 14:23:56;;;;;;;1.57;0.50;;;;;;;;;;5073188;28;20491;-69
2023/10/20 14:26:22;;;;;;;0.60;0.60;;;;;;;;;;5074117;28;20406;-69
2023/10/20 14:28:48;;;;;;;16.27;2.13;;;;;;;;;;5073839;28;20777;-68
2023/10/20 14:31:14;;;;;;;1.07;1.07;;;;;;;;;;5072063;28;20781;-68
2023/10/20 14:33:40;;;;;;;0.67;0.67;;;;;;;;;;5073612;28;20755;-69
2023/10/20 14:36:12;;;;;;;0.50;0.50;;;;;;;;;;5073245;28;20433;-68
2023/10/20 14:38:38;;;;;;;0.60;0.60;;;;;;;;;;5053675;28;20500;-68
2023/10/20 14:41:05;;;;;;;0.67;0.50;;;;;;;;;;5060684;28;21000;-69
2023/10/20 14:43:34;;;;;;;0.43;0.43;;;;;;;;;;5072058;28;20790;-68
2023/10/20 14:46:01;;;;;;;0.40;0.40;;;;;;;;;;5071479;28;20810;-69
2023/10/20 14:48:27;;;;;;;0.40;0.40;;;;;;;;;;5090911;28;20428;-68
2023/10/20 14:50:53;;;;;;;0.50;0.50;;;;;;;;;;5093255;28;20413;-68
2023/10/20 14:53:19;;;;;;;0.40;0.40;;;;;;;;;;5092269;28;20590;-68
2023/10/20 14:55:46;;;;;;;0.60;0.60;;;;;;;;;;5093551;28;20457;-68
2023/10/20 14:58:15;;;;;;;0.50;0.50;;;;;;;;;;5076229;28;20436;-68
2023/10/20 15:00:50;;;;;;;0.63;0.63;;;;;;;;;;5072235;28;20841;-68
2023/10/20 15:03:17;;;;;;;0.57;0.57;;;;;;;;;;5072860;28;20516;-69
2023/10/20 15:05:44;;;;;;;0.67;0.67;;;;;;;;;;5072084;28;20486;-68
2023/10/20 15:08:10;;;;;;;2.00;1.30;;;;;;;;;;5072206;28;20429;-68
2023/10/20 15:10:37;;;;;;;0.50;0.50;;;;;;;;;;5055586;28;20415;-68